Latest Coastal Weather Observations for Broome Port

IDW60701

Issued at 8:03 am WST Friday 24 March 2017 (issued every 10 minutes, with the page automatically refreshed every 10 minutes)

About coastal observations | Map of coastal stations | Coastal observations for WA | Marine services | Other Formats
Station Details ID: 003102 Name: BROOME NTC AWS Lat: -18.00 Lon: 122.22 Height: 0.0 m
Data from the previous 72 hours. | See also: Recent months for locations in Western Australia
Date/Time
WST
Temp
°C
Wind Pressure Rain since
9am
mm
Weather Cloud Vis
km
Sea
Height
m
Swell
Dir  Spd
kts
Gust
kts
hPa Trend Height
m
Period
s
Dir
24/08:00am 28.8 NNW 11 13 1008.3 - - - - - - - - -
24/07:30am 29.0 NNW 10 14 1008.2 - - - - - - - - -
24/07:00am 28.9 NNW 10 15 1007.8 - - - - - - - - -
24/06:30am 28.7 NNW 9 12 1007.4 - - - - - - - - -
24/06:00am 28.7 NNW 12 17 1007.1 - - - - - - - - -
24/05:30am 28.7 NNW 11 13 1006.7 - - - - - - - - -
24/05:00am 26.8 NNE 6 8 1006.6 - - - - - - - - -
24/04:30am 26.8 NNE 12 17 1006.7 - - - - - - - - -
24/04:00am 28.5 NNW 12 15 1006.4 - - - - - - - - -
24/03:30am 28.6 N 11 17 1006.1 - - - - - - - - -
24/03:00am 27.9 NNE 10 13 1006.2 - - - - - - - - -
24/02:30am 28.5 N 9 15 1006.1 - - - - - - - - -
24/02:00am 28.1 NNE 9 11 1006.3 - - - - - - - - -
24/01:30am 27.8 NNE 8 11 1006.5 - - - - - - - - -
24/01:00am 27.5 NE 9 10 1006.7 - - - - - - - - -
24/12:30am 27.6 NNE 10 12 1006.9 - - - - - - - - -
24/12:00am 27.6 NNE 12 15 1007.2 - - - - - - - - -
 
Date/Time
WST
Temp
°C
Wind Pressure Rain since
9am
mm
Weather Cloud Vis
km
Sea
Height
m
Swell
Dir  Spd
kts
Gust
kts
hPa Trend Height
m
Period
s
Dir
23/11:30pm 27.6 NNE 13 17 1007.5 - - - - - - - - -
23/11:00pm 27.7 NNE 12 15 1007.7 - - - - - - - - -
23/10:30pm 27.5 NNE 10 12 1007.7 - - - - - - - - -
23/10:00pm 27.8 NNE 11 14 1007.6 - - - - - - - - -
23/09:30pm 27.7 NNE 12 15 1007.6 - - - - - - - - -
23/09:00pm 27.9 NNE 13 15 1007.4 - - - - - - - - -
23/08:30pm 28.0 NNE 11 15 1007.4 - - - - - - - - -
23/08:00pm 28.2 NNE 10 13 1007.3 - - - - - - - - -
23/07:30pm 28.6 NNE 10 11 1007.0 - - - - - - - - -
23/07:00pm 28.6 NNE 10 12 1006.2 - - - - - - - - -
23/06:30pm 28.9 NNE 9 12 1006.2 - - - - - - - - -
23/06:00pm 29.0 NNE 10 13 1006.0 - - - - - - - - -
23/05:30pm 29.1 NNE 12 16 1005.7 - - - - - - - - -
23/05:00pm 29.1 N 13 17 1005.5 - - - - - - - - -
23/04:30pm 29.1 NNE 12 16 1005.4 - - - - - - - - -
23/04:00pm 29.6 NNE 13 18 1005.2 - - - - - - - - -
23/03:30pm 29.5 NNE 17 22 1005.1 - - - - - - - - -
23/03:00pm 29.3 N 17 23 1005.3 - - - - - - - - -
23/02:30pm 29.3 N 19 25 1005.5 - - - - - - - - -
23/02:00pm 29.4 NNE 21 27 1005.7 - - - - - - - - -
23/01:30pm 29.3 N 19 25 1005.9 - - - - - - - - -
23/01:00pm 29.3 NNE 18 25 1005.8 - - - - - - - - -
23/12:30pm 28.4 NNE 16 19 1006.0 - - - - - - - - -
23/12:00pm 28.1 NNE 17 24 1006.3 - - - - - - - - -
23/11:30am 28.6 NNE 16 24 1006.8 - - - - - - - - -
23/11:00am 26.8 NNE 17 23 1007.2 - - - - - - - - -
23/10:30am 28.7 NNE 17 22 1007.3 - - - - - - - - -
23/10:00am 29.1 NNE 15 21 1007.0 - - - - - - - - -
23/09:30am 28.2 NE 15 20 1007.0 - - - - - - - - -
23/09:00am 28.2 NE 14 20 1007.3 - - - - - - - - -
23/08:30am 28.0 NE 18 22 1007.5 - - - - - - - - -
23/08:00am 27.3 NE 15 18 1007.3 - - - - - - - - -
23/07:30am 27.0 NE 15 18 1007.0 - - - - - - - - -
23/07:00am 26.9 NE 11 14 1006.6 - - - - - - - - -
23/06:30am 27.0 ENE 12 15 1006.5 - - - - - - - - -
23/06:00am 26.8 NE 10 12 1006.4 - - - - - - - - -
23/05:30am 27.3 NNE 12 21 1006.1 - - - - - - - - -
23/05:00am 28.1 N 16 21 1005.9 - - - - - - - - -
23/04:30am 27.3 NNE 13 17 1005.5 - - - - - - - - -
23/04:00am 26.7 NNE 11 14 1005.4 - - - - - - - - -
23/03:30am 26.0 NE 10 12 1005.3 - - - - - - - - -
23/03:00am 25.9 NE 11 15 1005.2 - - - - - - - - -
23/02:30am 25.8 NNE 15 21 1005.3 - - - - - - - - -
23/02:00am 26.2 NNE 15 18 1005.6 - - - - - - - - -
23/01:30am 26.9 NNE 15 20 1005.4 - - - - - - - - -
23/01:00am 27.4 NE 14 19 1005.6 - - - - - - - - -
23/12:30am 27.8 NE 14 17 1005.9 - - - - - - - - -
23/12:00am 27.8 ENE 13 15 1006.3 - - - - - - - - -
 
Date/Time
WST
Temp
°C
Wind Pressure Rain since
9am
mm
Weather Cloud Vis
km
Sea
Height
m
Swell
Dir  Spd
kts
Gust
kts
hPa Trend Height
m
Period
s
Dir
22/11:30pm 28.2 NE 12 15 1006.4 - - - - - - - - -
22/11:00pm 28.2 NE 12 15 1006.5 - - - - - - - - -
22/10:30pm 28.3 NE 13 17 1006.7 - - - - - - - - -
22/10:00pm 28.6 ENE 14 17 1007.2 - - - - - - - - -
22/09:30pm 28.6 NE 12 15 1007.2 - - - - - - - - -
22/09:00pm 29.0 NE 11 13 1007.2 - - - - - - - - -
22/08:30pm 29.1 NE 9 11 1007.1 - - - - - - - - -
22/08:00pm 29.4 NNE 11 13 1006.9 - - - - - - - - -
22/07:30pm 29.7 NNE 10 12 1006.6 - - - - - - - - -
22/07:00pm 30.1 NNE 10 14 1005.9 - - - - - - - - -
22/06:30pm 30.6 NE 12 15 1005.6 - - - - - - - - -
22/06:00pm 31.1 NNE 14 19 1004.9 - - - - - - - - -
22/05:30pm 31.2 NNE 14 18 1004.3 - - - - - - - - -
22/05:00pm 30.4 ENE 10 15 1004.3 - - - - - - - - -
22/04:59pm 30.2 ENE 10 15 1004.3 - - - - - - - - -
22/04:38pm 27.8 NE 20 26 1004.6 - - - - - - - - -
22/04:36pm 31.4 NNE 20 27 1004.5 - - - - - - - - -
22/04:30pm 31.5 N 22 28 1003.9 - - - - - - - - -
22/04:00pm 31.6 N 21 27 1003.3 - - - - - - - - -
22/03:30pm 32.7 N 20 29 1003.0 - - - - - - - - -
22/03:26pm 32.7 NNE 19 29 1003.1 - - - - - - - - -
22/03:00pm 32.7 NNE 18 24 1003.1 - - - - - - - - -
22/02:30pm 31.8 N 15 21 1003.3 - - - - - - - - -
22/02:00pm 29.2 N 16 25 1003.6 - - - - - - - - -
22/01:30pm 30.8 N 17 21 1004.0 - - - - - - - - -
22/01:00pm 30.3 NNW 17 21 1004.4 - - - - - - - - -
22/12:30pm 32.6 ENE 12 16 1004.8 - - - - - - - - -
22/12:00pm 31.7 ENE 10 14 1005.6 - - - - - - - - -
22/11:30am 31.4 ENE 12 15 1006.1 - - - - - - - - -
22/11:00am 31.1 NE 10 13 1006.6 - - - - - - - - -
22/10:30am 30.7 NE 9 11 1007.0 - - - - - - - - -
22/10:00am 30.0 NE 11 14 1007.3 - - - - - - - - -
22/09:30am 29.5 NE 11 15 1007.6 - - - - - - - - -
22/09:00am 28.9 NE 11 14 1007.8 - - - - - - - - -
22/08:30am 28.6 NE 13 16 1008.2 - - - - - - - - -
22/08:00am 28.3 ENE 11 14 1007.8 - - - - - - - - -
22/07:30am 28.0 E 12 14 1007.6 - - - - - - - - -
22/07:00am 28.0 E 12 13 1007.4 - - - - - - - - -
22/06:30am 28.1 E 10 12 1007.0 - - - - - - - - -
22/06:00am 28.1 E 9 10 1006.5 - - - - - - - - -
22/05:30am 28.0 E 7 8 1005.9 - - - - - - - - -
22/05:00am 28.1 ENE 7 9 1005.9 - - - - - - - - -
22/04:30am 28.0 NE 8 11 1005.7 - - - - - - - - -
22/04:00am 28.0 NE 9 11 1005.7 - - - - - - - - -
22/03:30am 27.9 NE 9 12 1005.9 - - - - - - - - -
22/03:00am 27.9 NE 8 11 1005.8 - - - - - - - - -
22/02:30am 27.8 NE 8 10 1005.6 - - - - - - - - -
22/02:00am 28.0 NE 9 10 1005.8 - - - - - - - - -
22/01:30am 28.0 NE 9 12 1006.1 - - - - - - - - -
22/01:00am 27.9 NNE 10 12 1006.3 - - - - - - - - -
22/12:30am 28.2 NE 12 14 1006.6 - - - - - - - - -
22/12:00am 28.3 ENE 11 13 1006.9 - - - - - - - - -
 
Date/Time
WST
Temp
°C
Wind Pressure Rain since
9am
mm
Weather Cloud Vis
km
Sea
Height
m
Swell
Dir  Spd
kts
Gust
kts
hPa Trend Height
m
Period
s
Dir
21/11:30pm 28.3 ENE 10 13 1007.1 - - - - - - - - -
21/11:00pm 28.4 NE 10 12 1007.2 - - - - - - - - -
21/10:30pm 28.5 NNE 9 11 1007.0 - - - - - - - - -
21/10:00pm 28.7 NNE 11 13 1007.2 - - - - - - - - -
21/09:30pm 29.0 NNE 13 15 1007.4 - - - - - - - - -
21/09:00pm 28.8 NNE 11 14 1007.7 - - - - - - - - -
21/08:30pm 29.1 NNE 13 15 1007.7 - - - - - - - - -
21/08:00pm 29.7 NNE 7 8 1007.3 - - - - - - - - -
21/07:30pm 29.9 NNE 6 7 1006.5 - - - - - - - - -
21/07:00pm 30.1 N 8 9 1005.7 - - - - - - - - -
21/06:30pm 29.4 N 5 7 1005.2 - - - - - - - - -
21/06:00pm 28.8 NNW 5 7 1004.8 - - - - - - - - -
21/05:30pm 28.6 N 4 6 1004.3 - - - - - - - - -
21/05:00pm 29.6 N 4 5 1004.3 - - - - - - - - -
21/04:30pm 27.6 N 8 11 1004.7 - - - - - - - - -
21/04:00pm 29.1 NNW 12 17 1004.6 - - - - - - - - -
21/03:30pm 29.8 NW 8 11 1004.4 - - - - - - - - -
21/03:00pm 29.0 NW 6 9 1004.2 - - - - - - - - -
21/02:30pm 28.6 NW 10 13 1004.6 - - - - - - - - -
21/02:00pm 30.5 WSW 6 8 1004.7 - - - - - - - - -
21/01:30pm 30.6 S 6 7 1004.9 - - - - - - - - -
21/01:00pm 30.6 SSE 5 6 1005.3 - - - - - - - - -
21/12:30pm 30.8 ESE 2 4 1005.9 - - - - - - - - -
21/12:00pm 30.7 NE 4 7 1006.7 - - - - - - - - -
21/11:30am 30.3 NE 7 10 1007.2 - - - - - - - - -
21/11:00am 30.0 ENE 7 9 1007.7 - - - - - - - - -
21/10:30am 29.9 ENE 7 9 1007.7 - - - - - - - - -
21/10:00am 30.0 ENE 8 11 1008.0 - - - - - - - - -
21/09:30am 29.5 E 9 10 1008.0 - - - - - - - - -
21/09:00am 29.3 SE 7 8 1007.8 - - - - - - - - -
21/08:30am 28.7 SSE 7 8 1007.5 - - - - - - - - -

Other Formats:

Comma delimited format used in spreadsheet applications
http://www.bom.gov.au/fwo/IDW60701/IDW60701.95202.axf

JavaScript Object Notation format (JSON) in row-major order
http://www.bom.gov.au/fwo/IDW60701/IDW60701.95202.json